sensor_id;sensor_type;location;lat;lon;timestamp;pressure;altitude;pressure_sealevel;temperature;humidity
25130;BME280;13308;50.860;13.664;2022-09-28T06:05:19;94730.25;;;7.26;100.00
25130;BME280;13308;50.860;13.664;2022-09-28T06:07:45;94723.31;;;7.34;100.00
25130;BME280;13308;50.860;13.664;2022-09-28T06:10:10;94722.56;;;7.34;100.00
25130;BME280;13308;50.860;13.664;2022-09-28T06:12:39;94715.53;;;7.33;100.00
25130;BME280;13308;50.860;13.664;2022-09-28T06:15:10;94712.19;;;7.38;100.00
25130;BME280;13308;50.860;13.664;2022-09-28T06:17:36;94711.94;;;7.45;100.00
25130;BME280;13308;50.860;13.664;2022-09-28T06:20:20;94720.03;;;7.48;100.00
25130;BME280;13308;50.860;13.664;2022-09-28T06:22:54;94728.88;;;7.52;100.00
25130;BME280;13308;50.860;13.664;2022-09-28T06:25:22;94723.47;;;7.70;100.00
25130;BME280;13308;50.860;13.664;2022-09-28T06:28:01;94723.19;;;7.68;100.00
25130;BME280;13308;50.860;13.664;2022-09-28T06:30:28;94728.22;;;7.70;100.00
25130;BME280;13308;50.860;13.664;2022-09-28T06:32:55;94725.84;;;7.90;100.00
25130;BME280;13308;50.860;13.664;2022-09-28T06:35:22;94726.22;;;8.01;100.00
25130;BME280;13308;50.860;13.664;2022-09-28T06:37:49;94721.63;;;7.98;100.00
25130;BME280;13308;50.860;13.664;2022-09-28T06:40:15;94722.25;;;8.02;100.00
25130;BME280;13308;50.860;13.664;2022-09-28T06:42:41;94707.59;;;7.96;100.00
25130;BME280;13308;50.860;13.664;2022-09-28T06:45:28;94707.94;;;8.07;100.00
25130;BME280;13308;50.860;13.664;2022-09-28T06:48:12;94719.25;;;8.18;100.00
25130;BME280;13308;50.860;13.664;2022-09-28T06:50:40;94721.34;;;8.05;100.00
25130;BME280;13308;50.860;13.664;2022-09-28T06:53:19;94722.88;;;8.06;100.00
25130;BME280;13308;50.860;13.664;2022-09-28T06:55:54;94733.34;;;8.38;100.00
25130;BME280;13308;50.860;13.664;2022-09-28T06:58:21;94724.47;;;8.25;100.00
25130;BME280;13308;50.860;13.664;2022-09-28T07:00:50;94715.97;;;8.41;100.00
25130;BME280;13308;50.860;13.664;2022-09-28T07:03:18;94726.38;;;8.54;100.00
25130;BME280;13308;50.860;13.664;2022-09-28T07:06:02;94724.06;;;8.44;100.00
25130;BME280;13308;50.860;13.664;2022-09-28T07:08:39;94724.69;;;8.57;100.00
25130;BME280;13308;50.860;13.664;2022-09-28T07:11:23;94725.63;;;8.54;100.00
25130;BME280;13308;50.860;13.664;2022-09-28T07:14:17;94720.75;;;8.67;100.00
25130;BME280;13308;50.860;13.664;2022-09-28T07:16:44;94734.94;;;8.65;100.00
25130;BME280;13308;50.860;13.664;2022-09-28T07:19:10;94735.69;;;8.57;100.00
25130;BME280;13308;50.860;13.664;2022-09-28T07:21:35;94734.00;;;8.59;100.00
25130;BME280;13308;50.860;13.664;2022-09-28T07:24:03;94742.09;;;8.54;100.00
25130;BME280;13308;50.860;13.664;2022-09-28T07:26:48;94746.19;;;8.49;100.00
25130;BME280;13308;50.860;13.664;2022-09-28T07:29:34;94742.84;;;8.54;100.00
25130;BME280;13308;50.860;13.664;2022-09-28T07:32:16;94740.88;;;8.55;100.00
25130;BME280;13308;50.860;13.664;2022-09-28T07:35:14;94732.19;;;8.65;100.00
25130;BME280;13308;50.860;13.664;2022-09-28T07:37:58;94730.03;;;8.60;100.00
25130;BME280;13308;50.860;13.664;2022-09-28T07:40:25;94733.25;;;8.68;100.00
25130;BME280;13308;50.860;13.664;2022-09-28T07:43:10;94733.56;;;8.61;100.00
25130;BME280;13308;50.860;13.664;2022-09-28T07:45:37;94737.06;;;8.52;100.00
25130;BME280;13308;50.860;13.664;2022-09-28T07:48:03;94741.66;;;8.64;100.00
25130;BME280;13308;50.860;13.664;2022-09-28T07:50:48;94756.44;;;8.49;100.00
25130;BME280;13308;50.860;13.664;2022-09-28T07:53:38;94753.22;;;8.42;100.00
25130;BME280;13308;50.860;13.664;2022-09-28T07:56:25;94749.88;;;8.55;100.00
25130;BME280;13308;50.860;13.664;2022-09-28T07:59:13;94759.03;;;8.61;100.00
25130;BME280;13308;50.860;13.664;2022-09-28T08:02:07;94759.63;;;8.48;100.00
25130;BME280;13308;50.860;13.664;2022-09-28T08:04:33;94760.00;;;8.19;100.00
25130;BME280;13308;50.860;13.664;2022-09-28T08:06:58;94757.69;;;8.18;100.00
25130;BME280;13308;50.860;13.664;2022-09-28T08:09:24;94756.50;;;7.88;100.00
25130;BME280;13308;50.860;13.664;2022-09-28T08:12:08;94752.69;;;7.86;100.00
25130;BME280;13308;50.860;13.664;2022-09-28T08:15:06;94762.94;;;7.64;100.00
25130;BME280;13308;50.860;13.664;2022-09-28T08:18:00;94754.28;;;7.44;100.00
25130;BME280;13308;50.860;13.664;2022-09-28T08:20:27;94757.84;;;7.32;100.00
25130;BME280;13308;50.860;13.664;2022-09-28T08:23:11;94751.88;;;7.24;100.00
25130;BME280;13308;50.860;13.664;2022-09-28T08:25:38;94759.47;;;7.20;100.00
25130;BME280;13308;50.860;13.664;2022-09-28T08:28:05;94764.78;;;7.15;100.00
25130;BME280;13308;50.860;13.664;2022-09-28T08:30:34;94757.50;;;7.21;100.00
25130;BME280;13308;50.860;13.664;2022-09-28T08:33:37;94759.03;;;7.22;100.00
25130;BME280;13308;50.860;13.664;2022-09-28T08:36:21;94759.34;;;7.24;100.00
25130;BME280;13308;50.860;13.664;2022-09-28T08:39:05;94751.31;;;7.29;100.00
25130;BME280;13308;50.860;13.664;2022-09-28T08:45:13;94752.47;;;7.50;100.00
25130;BME280;13308;50.860;13.664;2022-09-28T08:48:16;94744.50;;;7.64;100.00
25130;BME280;13308;50.860;13.664;2022-09-28T08:51:39;94745.63;;;7.76;100.00
25130;BME280;13308;50.860;13.664;2022-09-28T08:57:18;94751.13;;;7.85;100.00
25130;BME280;13308;50.860;13.664;2022-09-28T08:59:51;94746.56;;;7.82;100.00
25130;BME280;13308;50.860;13.664;2022-09-28T09:02:29;94747.88;;;7.99;100.00
25130;BME280;13308;50.860;13.664;2022-09-28T09:05:11;94744.66;;;8.00;100.00
25130;BME280;13308;50.860;13.664;2022-09-28T09:08:25;94736.31;;;8.13;100.00
25130;BME280;13308;50.860;13.664;2022-09-28T09:11:12;94729.34;;;8.21;100.00
25130;BME280;13308;50.860;13.664;2022-09-28T09:16:52;94719.97;;;8.57;100.00
25130;BME280;13308;50.860;13.664;2022-09-28T09:19:58;94718.75;;;8.58;100.00
25130;BME280;13308;50.860;13.664;2022-09-28T09:22:46;94710.47;;;8.41;100.00
25130;BME280;13308;50.860;13.664;2022-09-28T09:25:19;94712.91;;;8.38;100.00
25130;BME280;13308;50.860;13.664;2022-09-28T09:30:22;94708.06;;;8.60;100.00
25130;BME280;13308;50.860;13.664;2022-09-28T09:33:27;94713.88;;;8.71;100.00
25130;BME280;13308;50.860;13.664;2022-09-28T09:39:57;94705.91;;;9.09;100.00
25130;BME280;13308;50.860;13.664;2022-09-28T09:45:50;94708.53;;;9.04;100.00
25130;BME280;13308;50.860;13.664;2022-09-28T09:48:46;94716.00;;;9.12;100.00
25130;BME280;13308;50.860;13.664;2022-09-28T09:51:19;94719.38;;;8.89;100.00
25130;BME280;13308;50.860;13.664;2022-09-28T09:53:57;94719.38;;;8.89;100.00
25130;BME280;13308;50.860;13.664;2022-09-28T09:56:39;94716.94;;;8.82;100.00
25130;BME280;13308;50.860;13.664;2022-09-28T09:59:18;94708.66;;;9.09;100.00
25130;BME280;13308;50.860;13.664;2022-09-28T10:02:33;94701.94;;;9.28;100.00
25130;BME280;13308;50.860;13.664;2022-09-28T10:13:00;94704.78;;;9.52;100.00
25130;BME280;13308;50.860;13.664;2022-09-28T10:15:28;94694.59;;;9.34;100.00
25130;BME280;13308;50.860;13.664;2022-09-28T10:18:11;94689.66;;;9.38;100.00
25130;BME280;13308;50.860;13.664;2022-09-28T10:20:55;94697.03;;;9.32;100.00
25130;BME280;13308;50.860;13.664;2022-09-28T10:23:35;94697.63;;;9.36;100.00
25130;BME280;13308;50.860;13.664;2022-09-28T10:26:09;94698.50;;;9.51;100.00
25130;BME280;13308;50.860;13.664;2022-09-28T10:28:51;94703.38;;;9.56;100.00
25130;BME280;13308;50.860;13.664;2022-09-28T10:31:38;94692.47;;;9.71;100.00
25130;BME280;13308;50.860;13.664;2022-09-28T10:34:13;94694.25;;;9.92;100.00
25130;BME280;13308;50.860;13.664;2022-09-28T10:36:46;94687.47;;;10.34;100.00
25130;BME280;13308;50.860;13.664;2022-09-28T10:39:25;94686.03;;;10.15;100.00
25130;BME280;13308;50.860;13.664;2022-09-28T10:41:52;94682.44;;;10.00;100.00
25130;BME280;13308;50.860;13.664;2022-09-28T10:44:21;94683.47;;;9.70;100.00
25130;BME280;13308;50.860;13.664;2022-09-28T10:47:21;94680.00;;;9.52;100.00
25130;BME280;13308;50.860;13.664;2022-09-28T10:49:49;94687.59;;;9.66;100.00
25130;BME280;13308;50.860;13.664;2022-09-28T10:52:38;94694.94;;;10.10;100.00
25130;BME280;13308;50.860;13.664;2022-09-28T10:55:32;94704.91;;;10.08;100.00
25130;BME280;13308;50.860;13.664;2022-09-28T10:57:59;94706.78;;;9.93;100.00
25130;BME280;13308;50.860;13.664;2022-09-28T11:00:39;94698.09;;;9.85;100.00
25130;BME280;13308;50.860;13.664;2022-09-28T11:03:19;94703.63;;;9.76;100.00
25130;BME280;13308;50.860;13.664;2022-09-28T11:06:02;94714.84;;;9.55;100.00
25130;BME280;13308;50.860;13.664;2022-09-28T11:08:31;94707.41;;;9.46;100.00
25130;BME280;13308;50.860;13.664;2022-09-28T11:11:11;94710.16;;;9.37;100.00
25130;BME280;13308;50.860;13.664;2022-09-28T11:13:39;94713.19;;;9.39;100.00
25130;BME280;13308;50.860;13.664;2022-09-28T11:16:22;94714.13;;;9.36;100.00
25130;BME280;13308;50.860;13.664;2022-09-28T11:18:47;94726.38;;;9.26;100.00
25130;BME280;13308;50.860;13.664;2022-09-28T11:21:16;94720.88;;;9.26;100.00
25130;BME280;13308;50.860;13.664;2022-09-28T11:24:05;94735.53;;;9.14;100.00
25130;BME280;13308;50.860;13.664;2022-09-28T11:26:39;94725.13;;;9.27;100.00
25130;BME280;13308;50.860;13.664;2022-09-28T11:29:36;94724.03;;;9.52;100.00
25130;BME280;13308;50.860;13.664;2022-09-28T11:32:39;94735.53;;;9.32;100.00
25130;BME280;13308;50.860;13.664;2022-09-28T11:35:28;94749.63;;;9.16;100.00
25130;BME280;13308;50.860;13.664;2022-09-28T11:38:02;94745.50;;;9.03;100.00
25130;BME280;13308;50.860;13.664;2022-09-28T11:44:36;94753.91;;;8.99;100.00
25130;BME280;13308;50.860;13.664;2022-09-28T11:50:05;94751.88;;;9.18;100.00
25130;BME280;13308;50.860;13.664;2022-09-28T11:52:40;94756.47;;;9.30;100.00
25130;BME280;13308;50.860;13.664;2022-09-28T11:55:42;94760.91;;;9.27;100.00
25130;BME280;13308;50.860;13.664;2022-09-28T11:58:19;94768.41;;;9.09;100.00
25130;BME280;13308;50.860;13.664;2022-09-28T12:01:00;94760.31;;;9.05;100.00
25130;BME280;13308;50.860;13.664;2022-09-28T12:03:49;94757.88;;;8.98;100.00
25130;BME280;13308;50.860;13.664;2022-09-28T12:06:18;94758.56;;;9.53;100.00
25130;BME280;13308;50.860;13.664;2022-09-28T12:08:52;94758.44;;;10.48;100.00
25130;BME280;13308;50.860;13.664;2022-09-28T12:11:41;94767.41;;;10.25;100.00
25130;BME280;13308;50.860;13.664;2022-09-28T12:14:31;94770.09;;;10.43;100.00
25130;BME280;13308;50.860;13.664;2022-09-28T12:17:07;94775.44;;;10.05;100.00
25130;BME280;13308;50.860;13.664;2022-09-28T12:19:41;94777.00;;;9.88;100.00
25130;BME280;13308;50.860;13.664;2022-09-28T12:22:17;94774.25;;;9.79;100.00
25130;BME280;13308;50.860;13.664;2022-09-28T12:24:48;94768.19;;;9.57;100.00
25130;BME280;13308;50.860;13.664;2022-09-28T12:27:31;94776.44;;;9.66;100.00
25130;BME280;13308;50.860;13.664;2022-09-28T12:30:04;94770.28;;;9.89;100.00
25130;BME280;13308;50.860;13.664;2022-09-28T12:32:40;94778.78;;;10.09;100.00
25130;BME280;13308;50.860;13.664;2022-09-28T12:41:22;94774.47;;;12.31;100.00
25130;BME280;13308;50.860;13.664;2022-09-28T12:43:57;94778.22;;;11.99;100.00
25130;BME280;13308;50.860;13.664;2022-09-28T12:46:52;94786.63;;;11.14;100.00
25130;BME280;13308;50.860;13.664;2022-09-28T13:01:12;94788.50;;;10.28;100.00
25130;BME280;13308;50.860;13.664;2022-09-28T13:07:08;94806.97;;;10.04;100.00
25130;BME280;13308;50.860;13.664;2022-09-28T13:09:49;94806.84;;;9.81;100.00
25130;BME280;13308;50.860;13.664;2022-09-28T13:12:50;94813.59;;;9.71;100.00
25130;BME280;13308;50.860;13.664;2022-09-28T13:15:42;94804.25;;;9.77;100.00
25130;BME280;13308;50.860;13.664;2022-09-28T13:18:21;94815.25;;;9.68;100.00
25130;BME280;13308;50.860;13.664;2022-09-28T13:23:49;94829.97;;;9.65;100.00
25130;BME280;13308;50.860;13.664;2022-09-28T13:26:33;94833.94;;;9.64;100.00
25130;BME280;13308;50.860;13.664;2022-09-28T13:29:04;94833.94;;;9.64;100.00
25130;BME280;13308;50.860;13.664;2022-09-28T13:31:43;94842.81;;;9.59;100.00
25130;BME280;13308;50.860;13.664;2022-09-28T13:34:15;94840.97;;;9.56;100.00
25130;BME280;13308;50.860;13.664;2022-09-28T13:36:45;94840.19;;;9.65;100.00
25130;BME280;13308;50.860;13.664;2022-09-28T13:39:34;94852.56;;;9.69;100.00
25130;BME280;13308;50.860;13.664;2022-09-28T13:42:00;94856.22;;;9.93;100.00
25130;BME280;13308;50.860;13.664;2022-09-28T13:47:20;94864.81;;;11.34;100.00
25130;BME280;13308;50.860;13.664;2022-09-28T13:53:15;94867.09;;;11.12;100.00
25130;BME280;13308;50.860;13.664;2022-09-28T13:58:35;94874.75;;;10.52;100.00
25130;BME280;13308;50.860;13.664;2022-09-28T14:01:13;94883.50;;;10.51;100.00
25130;BME280;13308;50.860;13.664;2022-09-28T14:04:19;94887.09;;;10.66;100.00
25130;BME280;13308;50.860;13.664;2022-09-28T14:06:52;94883.34;;;10.45;100.00
25130;BME280;13308;50.860;13.664;2022-09-28T14:09:46;94887.69;;;10.28;100.00
25130;BME280;13308;50.860;13.664;2022-09-28T14:12:28;94889.72;;;10.10;100.00
25130;BME280;13308;50.860;13.664;2022-09-28T14:14:54;94906.97;;;10.28;100.00
25130;BME280;13308;50.860;13.664;2022-09-28T14:19:53;94909.13;;;10.15;100.00
25130;BME280;13308;50.860;13.664;2022-09-28T14:22:27;94904.81;;;11.15;99.25
25130;BME280;13308;50.860;13.664;2022-09-28T14:25:15;94908.72;;;11.94;95.30
25130;BME280;13308;50.860;13.664;2022-09-28T14:30:44;94911.00;;;11.34;95.27
25130;BME280;13308;50.860;13.664;2022-09-28T14:35:57;94905.38;;;10.54;99.67
25130;BME280;13308;50.860;13.664;2022-09-28T14:38:28;94908.00;;;10.49;100.00
25130;BME280;13308;50.860;13.664;2022-09-28T14:48:53;94915.06;;;10.41;100.00
25130;BME280;13308;50.860;13.664;2022-09-28T14:54:14;94923.53;;;10.10;100.00
25130;BME280;13308;50.860;13.664;2022-09-28T14:59:24;94916.66;;;9.97;100.00
25130;BME280;13308;50.860;13.664;2022-09-28T15:01:54;94920.16;;;9.88;100.00
25130;BME280;13308;50.860;13.664;2022-09-28T15:04:23;94923.81;;;9.85;100.00
25130;BME280;13308;50.860;13.664;2022-09-28T15:06:51;94925.22;;;9.81;100.00
25130;BME280;13308;50.860;13.664;2022-09-28T15:09:33;94929.94;;;9.80;100.00
25130;BME280;13308;50.860;13.664;2022-09-28T15:14:26;94930.25;;;9.73;100.00
25130;BME280;13308;50.860;13.664;2022-09-28T15:16:57;94933.19;;;9.79;100.00
25130;BME280;13308;50.860;13.664;2022-09-28T15:19:36;94946.47;;;9.80;100.00
25130;BME280;13308;50.860;13.664;2022-09-28T15:22:15;94943.09;;;9.85;100.00
25130;BME280;13308;50.860;13.664;2022-09-28T15:24:44;94939.44;;;9.97;100.00
25130;BME280;13308;50.860;13.664;2022-09-28T15:27:14;94941.13;;;10.13;100.00
25130;BME280;13308;50.860;13.664;2022-09-28T15:29:40;94947.41;;;9.95;100.00
25130;BME280;13308;50.860;13.664;2022-09-28T15:32:22;94948.59;;;9.85;100.00
25130;BME280;13308;50.860;13.664;2022-09-28T15:34:47;94948.28;;;9.74;100.00
25130;BME280;13308;50.860;13.664;2022-09-28T15:37:21;94960.69;;;9.61;100.00
25130;BME280;13308;50.860;13.664;2022-09-28T15:39:49;94956.22;;;9.63;100.00
25130;BME280;13308;50.860;13.664;2022-09-28T15:42:16;94957.13;;;9.51;100.00
25130;BME280;13308;50.860;13.664;2022-09-28T15:44:42;94959.28;;;9.47;100.00
25130;BME280;13308;50.860;13.664;2022-09-28T15:47:27;94951.78;;;9.39;100.00
25130;BME280;13308;50.860;13.664;2022-09-28T15:52:59;94965.09;;;9.40;100.00
25130;BME280;13308;50.860;13.664;2022-09-28T15:55:33;94976.34;;;9.33;100.00
25130;BME280;13308;50.860;13.664;2022-09-28T15:58:18;94986.44;;;9.27;100.00
25130;BME280;13308;50.860;13.664;2022-09-28T16:00:45;94990.41;;;9.26;100.00
25130;BME280;13308;50.860;13.664;2022-09-28T16:03:20;94987.06;;;9.31;100.00
25130;BME280;13308;50.860;13.664;2022-09-28T16:13:31;94995.75;;;9.30;100.00
25130;BME280;13308;50.860;13.664;2022-09-28T16:15:58;94988.88;;;9.25;100.00
25130;BME280;13308;50.860;13.664;2022-09-28T16:18:25;94993.44;;;9.10;100.00
25130;BME280;13308;50.860;13.664;2022-09-28T16:21:38;94999.03;;;9.07;100.00
25130;BME280;13308;50.860;13.664;2022-09-28T16:23:41;94996.44;;;9.03;100.00
25130;BME280;13308;50.860;13.664;2022-09-28T16:26:14;95003.06;;;8.84;100.00
25130;BME280;13308;50.860;13.664;2022-09-28T16:33:43;94999.44;;;8.36;100.00
25130;BME280;13308;50.860;13.664;2022-09-28T16:36:14;94995.09;;;8.26;100.00
25130;BME280;13308;50.860;13.664;2022-09-28T16:38:43;95006.31;;;8.18;100.00
25130;BME280;13308;50.860;13.664;2022-09-28T16:41:09;95011.53;;;8.04;100.00
25130;BME280;13308;50.860;13.664;2022-09-28T16:43:35;95014.56;;;7.85;100.00
25130;BME280;13308;50.860;13.664;2022-09-28T16:48:32;95021.53;;;7.64;100.00
25130;BME280;13308;50.860;13.664;2022-09-28T16:50:59;95022.13;;;7.47;100.00
25130;BME280;13308;50.860;13.664;2022-09-28T16:53:24;95024.03;;;7.37;100.00
25130;BME280;13308;50.860;13.664;2022-09-28T16:56:08;95028.88;;;7.21;100.00
25130;BME280;13308;50.860;13.664;2022-09-28T16:58:34;95026.25;;;7.05;100.00
25130;BME280;13308;50.860;13.664;2022-09-28T17:01:03;95026.13;;;6.96;100.00
25130;BME280;13308;50.860;13.664;2022-09-28T17:03:29;95031.59;;;6.96;100.00
25130;BME280;13308;50.860;13.664;2022-09-28T17:05:55;95035.44;;;6.86;100.00
25130;BME280;13308;50.860;13.664;2022-09-28T17:08:21;95032.47;;;6.80;100.00
25130;BME280;13308;50.860;13.664;2022-09-28T17:10:53;95038.59;;;6.72;100.00
25130;BME280;13308;50.860;13.664;2022-09-28T17:13:20;95042.75;;;6.64;100.00
25130;BME280;13308;50.860;13.664;2022-09-28T17:15:47;95030.50;;;6.81;100.00
25130;BME280;13308;50.860;13.664;2022-09-28T17:18:15;95033.13;;;6.72;100.00
25130;BME280;13308;50.860;13.664;2022-09-28T17:20:43;95035.06;;;6.59;100.00
25130;BME280;13308;50.860;13.664;2022-09-28T17:23:10;95053.78;;;6.48;100.00
25130;BME280;13308;50.860;13.664;2022-09-28T17:25:36;95058.41;;;6.51;100.00
25130;BME280;13308;50.860;13.664;2022-09-28T17:28:02;95056.63;;;6.44;100.00
25130;BME280;13308;50.860;13.664;2022-09-28T17:30:28;95065.94;;;6.47;100.00
25130;BME280;13308;50.860;13.664;2022-09-28T17:32:54;95066.31;;;6.61;100.00
25130;BME280;13308;50.860;13.664;2022-09-28T17:35:19;95069.94;;;6.71;100.00
25130;BME280;13308;50.860;13.664;2022-09-28T17:37:44;95069.09;;;6.74;100.00
